Time;durP1;ratioP1;P1;durP2;ratioP2;P2;SDS_P1;SDS_P2;PMS_P1;PMS_P2;Temp;Humidity;BMP_temperature;BMP_pressure;BME280_temperature;BME280_humidity;BME280_pressure;Samples;Min_cycle;Max_cycle;Signal;HPM_P1;HPM_P2
2023/08/21 00:01:46;;;;;;;0.63;0.50;;;;;;;;;;4970280;28;57920;-78
2023/08/21 00:04:11;;;;;;;1.03;0.60;;;;;;;;;;4970809;28;58970;-79
2023/08/21 00:06:37;;;;;;;0.65;0.40;;;;;;;;;;4974247;28;57995;-78
2023/08/21 00:09:02;;;;;;;1.50;0.50;;;;;;;;;;4972688;28;58031;-79
2023/08/21 00:11:27;;;;;;;0.37;0.37;;;;;;;;;;4968221;28;58239;-79
2023/08/21 00:13:52;;;;;;;0.50;0.30;;;;;;;;;;4968511;28;57817;-79
2023/08/21 00:16:17;;;;;;;0.93;0.47;;;;;;;;;;4969778;28;57881;-79
2023/08/21 00:18:43;;;;;;;0.70;0.70;;;;;;;;;;4968802;28;58075;-78
2023/08/21 00:21:08;;;;;;;0.57;0.50;;;;;;;;;;4970105;28;59473;-78
2023/08/21 00:23:33;;;;;;;0.37;0.37;;;;;;;;;;4971091;28;57843;-79
2023/08/21 00:25:58;;;;;;;0.80;0.40;;;;;;;;;;4979936;28;57850;-79
2023/08/21 00:28:24;;;;;;;0.45;0.32;;;;;;;;;;4976385;28;57678;-79
2023/08/21 00:30:49;;;;;;;0.38;0.38;;;;;;;;;;4977158;28;58859;-79
2023/08/21 00:33:14;;;;;;;0.70;0.30;;;;;;;;;;4975720;28;57948;-79
2023/08/21 00:35:40;;;;;;;0.37;0.37;;;;;;;;;;4977440;28;59215;-78
2023/08/21 00:38:05;;;;;;;0.37;0.37;;;;;;;;;;4979070;28;57832;-78
2023/08/21 00:40:30;;;;;;;0.30;0.30;;;;;;;;;;4974843;28;58552;-78
2023/08/21 00:42:56;;;;;;;0.60;0.43;;;;;;;;;;4976018;28;58966;-79
2023/08/21 00:45:21;;;;;;;0.50;0.40;;;;;;;;;;4972476;28;58008;-79
2023/08/21 00:47:46;;;;;;;0.83;0.40;;;;;;;;;;4975796;28;58815;-78
2023/08/21 00:50:11;;;;;;;0.93;0.73;;;;;;;;;;4981470;28;58359;-76
2023/08/21 00:52:39;;;;;;;0.83;0.63;;;;;;;;;;4977366;28;57868;-79
2023/08/21 00:55:05;;;;;;;0.57;0.57;;;;;;;;;;4970524;28;58273;-79
2023/08/21 00:57:31;;;;;;;0.70;0.70;;;;;;;;;;4975243;28;58123;-79
2023/08/21 00:59:56;;;;;;;0.40;0.20;;;;;;;;;;4977068;28;58946;-79
2023/08/21 01:02:21;;;;;;;0.47;0.40;;;;;;;;;;4977458;28;59194;-78
2023/08/21 01:04:47;;;;;;;0.40;0.40;;;;;;;;;;4978107;28;57835;-79
2023/08/21 01:07:13;;;;;;;0.70;0.50;;;;;;;;;;4977959;28;58629;-78
2023/08/21 01:09:38;;;;;;;0.52;0.50;;;;;;;;;;4973690;28;58380;-78
2023/08/21 01:12:12;;;;;;;0.57;0.45;;;;;;;;;;4979029;28;58206;-79
2023/08/21 01:14:48;;;;;;;0.60;0.60;;;;;;;;;;4979621;28;58814;-79
2023/08/21 01:17:14;;;;;;;0.47;0.47;;;;;;;;;;4977555;28;58003;-79
2023/08/21 01:19:43;;;;;;;0.30;0.30;;;;;;;;;;4977910;28;58843;-79
2023/08/21 01:22:08;;;;;;;0.68;0.57;;;;;;;;;;4977928;28;59184;-78
2023/08/21 01:24:34;;;;;;;0.43;0.43;;;;;;;;;;4974115;28;58105;-78
2023/08/21 01:26:59;;;;;;;1.00;0.40;;;;;;;;;;4983791;28;58813;-79
2023/08/21 01:29:25;;;;;;;0.57;0.50;;;;;;;;;;4979891;28;58999;-80
2023/08/21 01:32:05;;;;;;;0.30;0.30;;;;;;;;;;4966100;28;58238;-79
2023/08/21 01:34:33;;;;;;;0.93;0.40;;;;;;;;;;4987495;28;58899;-79
2023/08/21 01:36:58;;;;;;;0.43;0.40;;;;;;;;;;4987510;28;58009;-79
2023/08/21 01:39:23;;;;;;;0.30;0.30;;;;;;;;;;4989119;28;57864;-78
2023/08/21 01:41:48;;;;;;;0.50;0.50;;;;;;;;;;4986108;28;58185;-78
2023/08/21 01:44:13;;;;;;;0.70;0.30;;;;;;;;;;4996098;28;58223;-79
2023/08/21 01:46:39;;;;;;;0.60;0.50;;;;;;;;;;4992542;28;58005;-79
2023/08/21 01:49:04;;;;;;;0.13;0.10;;;;;;;;;;4994250;28;58237;-78
2023/08/21 01:51:29;;;;;;;0.40;0.30;;;;;;;;;;4996681;28;57669;-78
2023/08/21 01:53:54;;;;;;;0.43;0.43;;;;;;;;;;4973562;28;59232;-78
2023/08/21 01:56:20;;;;;;;0.30;0.30;;;;;;;;;;4996369;28;57923;-77
2023/08/21 01:58:45;;;;;;;0.40;0.40;;;;;;;;;;4991661;28;57700;-78
2023/08/21 02:01:10;;;;;;;0.40;0.40;;;;;;;;;;4992547;28;57708;-79
2023/08/21 02:03:35;;;;;;;0.20;0.20;;;;;;;;;;4995303;28;57666;-78
2023/08/21 02:06:01;;;;;;;0.35;0.35;;;;;;;;;;4998740;28;57500;-77
2023/08/21 02:08:32;;;;;;;0.50;0.50;;;;;;;;;;4994457;28;58937;-78
2023/08/21 02:10:58;;;;;;;0.22;0.22;;;;;;;;;;4995151;28;57857;-78
2023/08/21 02:13:23;;;;;;;0.40;0.40;;;;;;;;;;4992326;28;58929;-79
2023/08/21 02:15:48;;;;;;;0.30;0.30;;;;;;;;;;4991438;28;57958;-79
2023/08/21 02:18:13;;;;;;;0.83;0.70;;;;;;;;;;4997144;28;57233;-78
2023/08/21 02:20:38;;;;;;;0.83;0.80;;;;;;;;;;4994280;28;58275;-79
2023/08/21 02:23:04;;;;;;;1.60;0.63;;;;;;;;;;4996929;28;57859;-78
2023/08/21 02:25:29;;;;;;;0.50;0.40;;;;;;;;;;4993255;28;57597;-78
2023/08/21 02:27:54;;;;;;;0.20;0.20;;;;;;;;;;4996336;28;58323;-79
2023/08/21 02:30:20;;;;;;;0.40;0.40;;;;;;;;;;4990822;28;58269;-78
2023/08/21 02:32:45;;;;;;;0.70;0.30;;;;;;;;;;4982675;28;58128;-79
2023/08/21 02:35:10;;;;;;;0.50;0.40;;;;;;;;;;4979563;28;58951;-78
2023/08/21 02:37:38;;;;;;;0.60;0.37;;;;;;;;;;4981208;28;57849;-78
2023/08/21 02:40:03;;;;;;;;;;;;;;;;;;4982626;28;57919;-79
2023/08/21 02:42:29;;;;;;;0.47;0.38;;;;;;;;;;4980758;28;57773;-78
2023/08/21 02:44:54;;;;;;;0.60;0.60;;;;;;;;;;4978779;28;59155;-79
2023/08/21 02:47:19;;;;;;;0.20;0.20;;;;;;;;;;4981244;28;57910;-79
2023/08/21 02:49:44;;;;;;;0.40;0.40;;;;;;;;;;4981359;28;57914;-78
2023/08/21 02:52:09;;;;;;;0.47;0.47;;;;;;;;;;4981623;28;58513;-79
2023/08/21 02:54:34;;;;;;;0.40;0.40;;;;;;;;;;4981633;28;57966;-78
2023/08/21 02:57:00;;;;;;;0.53;0.50;;;;;;;;;;4982215;28;58018;-77
2023/08/21 02:59:25;;;;;;;0.37;0.37;;;;;;;;;;4978625;28;57907;-77
2023/08/21 03:01:50;;;;;;;0.40;0.40;;;;;;;;;;4982781;28;58138;-79
2023/08/21 03:04:15;;;;;;;0.40;0.40;;;;;;;;;;4980481;28;58045;-78
2023/08/21 03:06:40;;;;;;;0.40;0.40;;;;;;;;;;4976239;28;59651;-78
2023/08/21 03:09:05;;;;;;;2.50;0.50;;;;;;;;;;4980293;28;57563;-78
2023/08/21 03:11:31;;;;;;;0.30;0.30;;;;;;;;;;4976709;28;58588;-77
2023/08/21 03:13:56;;;;;;;0.40;0.40;;;;;;;;;;4974409;28;58361;-77
2023/08/21 03:16:21;;;;;;;0.30;0.30;;;;;;;;;;4971696;28;58034;-76
2023/08/21 03:18:59;;;;;;;0.40;0.40;;;;;;;;;;4975760;28;58579;-76
2023/08/21 03:21:25;;;;;;;0.43;0.43;;;;;;;;;;4973207;28;59747;-76
2023/08/21 03:23:51;;;;;;;0.30;0.30;;;;;;;;;;4972573;28;58070;-77
2023/08/21 03:26:16;;;;;;;0.20;0.20;;;;;;;;;;4972004;28;59205;-76
2023/08/21 03:28:41;;;;;;;0.63;0.32;;;;;;;;;;4976262;28;58104;-75
2023/08/21 03:31:06;;;;;;;0.40;0.40;;;;;;;;;;4975731;28;59157;-76
2023/08/21 03:33:32;;;;;;;0.40;0.40;;;;;;;;;;4953924;28;59356;-76
2023/08/21 03:35:57;;;;;;;0.32;0.32;;;;;;;;;;4972198;28;57794;-76
2023/08/21 03:38:22;;;;;;;0.20;0.20;;;;;;;;;;4972219;28;59136;-75
2023/08/21 03:40:47;;;;;;;0.40;0.40;;;;;;;;;;4973941;28;58870;-76
2023/08/21 03:43:12;;;;;;;0.40;0.40;;;;;;;;;;4972233;28;57819;-76
2023/08/21 03:45:37;;;;;;;0.60;0.60;;;;;;;;;;4976244;28;59518;-76
2023/08/21 03:48:03;;;;;;;0.43;0.40;;;;;;;;;;4973552;28;58077;-75
2023/08/21 03:50:28;;;;;;;0.30;0.30;;;;;;;;;;4977343;28;57787;-76
2023/08/21 03:52:53;;;;;;;0.30;0.30;;;;;;;;;;4975754;28;58274;-76
2023/08/21 03:55:18;;;;;;;0.37;0.37;;;;;;;;;;4978096;28;58006;-75
2023/08/21 03:57:43;;;;;;;0.10;0.10;;;;;;;;;;4976846;28;58387;-75
2023/08/21 04:00:09;;;;;;;0.40;0.40;;;;;;;;;;4955473;28;57789;-77
2023/08/21 04:02:34;;;;;;;0.30;0.30;;;;;;;;;;4961789;28;58263;-76
2023/08/21 04:04:59;;;;;;;0.23;0.23;;;;;;;;;;4974623;28;59281;-76
2023/08/21 04:07:24;;;;;;;0.30;0.30;;;;;;;;;;4971195;28;57967;-76
2023/08/21 04:09:49;;;;;;;0.40;0.40;;;;;;;;;;4972171;28;57575;-76
2023/08/21 04:12:14;;;;;;;0.30;0.20;;;;;;;;;;4960505;28;58330;-76
2023/08/21 04:14:40;;;;;;;0.30;0.30;;;;;;;;;;4977937;28;58102;-76
2023/08/21 04:17:05;;;;;;;0.30;0.30;;;;;;;;;;4961604;28;59359;-75
2023/08/21 04:19:32;;;;;;;0.60;0.60;;;;;;;;;;4973683;28;58865;-76
2023/08/21 04:21:58;;;;;;;0.20;0.20;;;;;;;;;;4971579;28;57588;-79
2023/08/21 04:24:24;;;;;;;0.30;0.30;;;;;;;;;;4972997;28;57942;-79
2023/08/21 04:26:49;;;;;;;0.50;0.30;;;;;;;;;;4978265;28;58966;-78
2023/08/21 04:29:14;;;;;;;0.67;0.37;;;;;;;;;;4976741;28;58921;-79
2023/08/21 04:31:39;;;;;;;0.30;0.30;;;;;;;;;;4972827;28;58006;-79
2023/08/21 04:34:04;;;;;;;0.53;0.30;;;;;;;;;;4972664;28;57990;-78
2023/08/21 04:36:29;;;;;;;0.20;0.20;;;;;;;;;;4975797;28;59284;-78
2023/08/21 04:38:55;;;;;;;0.60;0.40;;;;;;;;;;4974771;28;58484;-78
2023/08/21 04:41:20;;;;;;;0.40;0.40;;;;;;;;;;4971567;28;58094;-72
2023/08/21 04:43:45;;;;;;;0.57;0.37;;;;;;;;;;4976222;28;57320;-82
2023/08/21 04:46:10;;;;;;;0.30;0.30;;;;;;;;;;4973408;28;58067;-85
2023/08/21 04:48:35;;;;;;;0.60;0.60;;;;;;;;;;4973267;28;57617;-83
2023/08/21 04:51:01;;;;;;;0.30;0.30;;;;;;;;;;4968152;28;58015;-76
2023/08/21 04:53:26;;;;;;;1.70;0.40;;;;;;;;;;4967521;28;57494;-76
2023/08/21 04:55:51;;;;;;;0.30;0.30;;;;;;;;;;4974314;28;58301;-75
2023/08/21 04:58:17;;;;;;;0.30;0.30;;;;;;;;;;4970778;28;59400;-75
2023/08/21 05:00:44;;;;;;;0.32;0.32;;;;;;;;;;4982344;28;58359;-76
2023/08/21 05:03:09;;;;;;;0.63;0.60;;;;;;;;;;4979872;28;58601;-76
2023/08/21 05:05:35;;;;;;;0.73;0.40;;;;;;;;;;4979118;28;58334;-76
2023/08/21 05:08:00;;;;;;;0.50;0.50;;;;;;;;;;4980870;28;58294;-76
2023/08/21 05:10:25;;;;;;;0.33;0.33;;;;;;;;;;4979504;28;59785;-76
2023/08/21 05:12:50;;;;;;;1.40;0.40;;;;;;;;;;4965023;28;58497;-76
2023/08/21 05:15:16;;;;;;;0.20;0.20;;;;;;;;;;4980620;28;60260;-75
2023/08/21 05:17:41;;;;;;;0.45;0.45;;;;;;;;;;4978837;28;59704;-76
2023/08/21 05:20:07;;;;;;;0.30;0.30;;;;;;;;;;4961936;28;57887;-75
2023/08/21 05:22:32;;;;;;;0.40;0.30;;;;;;;;;;4974877;28;60172;-76
2023/08/21 05:24:57;;;;;;;0.38;0.38;;;;;;;;;;4977255;28;59159;-75
2023/08/21 05:27:22;;;;;;;0.50;0.50;;;;;;;;;;4978801;28;58534;-75
2023/08/21 05:29:49;;;;;;;0.30;0.30;;;;;;;;;;4980566;28;58792;-76
2023/08/21 05:32:14;;;;;;;0.30;0.30;;;;;;;;;;4978302;28;59385;-76
2023/08/21 05:34:39;;;;;;;0.40;0.20;;;;;;;;;;4977242;28;58609;-76
2023/08/21 05:37:04;;;;;;;1.38;0.40;;;;;;;;;;4976713;28;58481;-76
2023/08/21 05:39:30;;;;;;;0.57;0.57;;;;;;;;;;4977703;28;58399;-76
2023/08/21 05:41:55;;;;;;;0.30;0.30;;;;;;;;;;4961905;28;61065;-76
2023/08/21 05:44:21;;;;;;;0.38;0.38;;;;;;;;;;4975758;28;58365;-75
2023/08/21 05:46:46;;;;;;;0.53;0.30;;;;;;;;;;4963472;28;58479;-75
2023/08/21 05:49:11;;;;;;;1.77;0.40;;;;;;;;;;4978518;28;58564;-75
2023/08/21 05:51:36;;;;;;;0.40;0.40;;;;;;;;;;4980452;28;59136;-76
2023/08/21 05:54:01;;;;;;;0.37;0.30;;;;;;;;;;4979146;28;58397;-75
2023/08/21 05:56:27;;;;;;;0.30;0.30;;;;;;;;;;4978008;28;58406;-76
2023/08/21 05:58:52;;;;;;;0.80;0.30;;;;;;;;;;4978167;28;58403;-74
2023/08/21 06:01:17;;;;;;;0.30;0.30;;;;;;;;;;4977691;28;58537;-75
2023/08/21 06:03:42;;;;;;;0.57;0.57;;;;;;;;;;4977601;28;58597;-76
2023/08/21 06:06:08;;;;;;;0.40;0.30;;;;;;;;;;4978056;28;58549;-76
2023/08/21 06:08:33;;;;;;;0.40;0.40;;;;;;;;;;4979428;28;58494;-76
2023/08/21 06:10:58;;;;;;;0.95;0.50;;;;;;;;;;4977505;28;59440;-75
2023/08/21 06:13:23;;;;;;;0.23;0.23;;;;;;;;;;4976963;28;58476;-75
2023/08/21 06:15:48;;;;;;;0.63;0.53;;;;;;;;;;4976512;28;58409;-76
2023/08/21 06:18:14;;;;;;;0.20;0.20;;;;;;;;;;4974464;28;57791;-75
2023/08/21 06:20:41;;;;;;;0.30;0.25;;;;;;;;;;4974771;28;58749;-75
2023/08/21 06:23:07;;;;;;;1.58;0.30;;;;;;;;;;4977548;28;58212;-75
2023/08/21 06:25:32;;;;;;;0.53;0.47;;;;;;;;;;4977548;28;58391;-75
2023/08/21 06:27:57;;;;;;;0.77;0.50;;;;;;;;;;4977741;28;58579;-75
2023/08/21 06:30:22;;;;;;;1.43;0.40;;;;;;;;;;4977839;28;58716;-76
2023/08/21 06:32:48;;;;;;;0.37;0.37;;;;;;;;;;4974982;28;58350;-75
2023/08/21 06:35:14;;;;;;;0.30;0.30;;;;;;;;;;4979382;28;58567;-75
2023/08/21 06:37:40;;;;;;;1.50;0.30;;;;;;;;;;4978673;28;58338;-76
2023/08/21 06:40:06;;;;;;;0.40;0.40;;;;;;;;;;4979155;28;59922;-76
2023/08/21 06:42:31;;;;;;;0.40;0.40;;;;;;;;;;4976787;28;58448;-76
2023/08/21 06:44:57;;;;;;;0.40;0.20;;;;;;;;;;4973883;28;58362;-76
2023/08/21 06:47:22;;;;;;;0.23;0.23;;;;;;;;;;4973598;28;58755;-75
2023/08/21 06:49:47;;;;;;;0.52;0.20;;;;;;;;;;4975808;28;58300;-75
2023/08/21 06:52:12;;;;;;;0.50;0.50;;;;;;;;;;4977775;28;58305;-74
2023/08/21 06:54:37;;;;;;;0.57;0.40;;;;;;;;;;4974428;28;60038;-74
2023/08/21 06:57:02;;;;;;;0.32;0.32;;;;;;;;;;4977254;28;58761;-74
2023/08/21 06:59:27;;;;;;;0.30;0.30;;;;;;;;;;4975560;28;59035;-74
2023/08/21 07:01:53;;;;;;;0.60;0.60;;;;;;;;;;4975343;28;59034;-74
2023/08/21 07:04:18;;;;;;;0.43;0.27;;;;;;;;;;4975924;28;58343;-74
2023/08/21 07:06:43;;;;;;;0.27;0.27;;;;;;;;;;4976230;28;58990;-74
2023/08/21 07:09:08;;;;;;;0.33;0.30;;;;;;;;;;4976566;28;58272;-74
2023/08/21 07:11:34;;;;;;;0.20;0.20;;;;;;;;;;4976540;28;58466;-74
2023/08/21 07:13:59;;;;;;;0.30;0.30;;;;;;;;;;4977511;28;58337;-74
2023/08/21 07:16:26;;;;;;;0.20;0.20;;;;;;;;;;4970937;28;59529;-74
2023/08/21 07:18:51;;;;;;;0.47;0.40;;;;;;;;;;4979930;28;58455;-74
2023/08/21 07:21:16;;;;;;;0.47;0.30;;;;;;;;;;4976172;28;58725;-74
2023/08/21 07:23:41;;;;;;;0.57;0.50;;;;;;;;;;4977355;28;58398;-75
2023/08/21 07:26:08;;;;;;;0.43;0.30;;;;;;;;;;4977005;28;58406;-74
2023/08/21 07:28:33;;;;;;;0.70;0.25;;;;;;;;;;4955325;28;59483;-74
2023/08/21 07:30:58;;;;;;;0.47;0.45;;;;;;;;;;4974214;28;58381;-74
2023/08/21 07:33:24;;;;;;;0.27;0.27;;;;;;;;;;4977948;28;60330;-74
2023/08/21 07:36:00;;;;;;;0.43;0.43;;;;;;;;;;4972198;28;58643;-74
2023/08/21 07:38:25;;;;;;;0.40;0.40;;;;;;;;;;4973299;28;58443;-74
2023/08/21 07:40:50;;;;;;;0.68;0.47;;;;;;;;;;4975973;28;59498;-74
2023/08/21 07:43:15;;;;;;;0.47;0.30;;;;;;;;;;4975439;28;58369;-74
2023/08/21 07:45:40;;;;;;;0.40;0.25;;;;;;;;;;4973510;28;58389;-74
2023/08/21 07:48:06;;;;;;;0.30;0.30;;;;;;;;;;4974066;28;58438;-74
2023/08/21 07:50:31;;;;;;;0.30;0.30;;;;;;;;;;4953193;28;58347;-74
2023/08/21 07:52:56;;;;;;;0.52;0.38;;;;;;;;;;4975654;28;58222;-74
2023/08/21 07:55:21;;;;;;;0.55;0.55;;;;;;;;;;4973522;28;58442;-74
2023/08/21 07:57:46;;;;;;;0.50;0.27;;;;;;;;;;4963647;28;58094;-74
2023/08/21 08:00:12;;;;;;;0.23;0.23;;;;;;;;;;4974389;28;58702;-74
2023/08/21 08:02:37;;;;;;;0.20;0.20;;;;;;;;;;4974794;28;58026;-76
2023/08/21 08:05:02;;;;;;;0.70;0.30;;;;;;;;;;4972082;28;58909;-76
2023/08/21 08:07:28;;;;;;;0.30;0.20;;;;;;;;;;4974632;28;58826;-76
2023/08/21 08:09:53;;;;;;;0.30;0.20;;;;;;;;;;4980199;28;58444;-76
2023/08/21 08:12:19;;;;;;;0.35;0.22;;;;;;;;;;4956975;28;60114;-75
2023/08/21 08:14:44;;;;;;;0.30;0.30;;;;;;;;;;4972259;28;58607;-76
2023/08/21 08:17:09;;;;;;;0.35;0.30;;;;;;;;;;4975060;28;58408;-76
2023/08/21 08:19:34;;;;;;;0.30;0.30;;;;;;;;;;4974310;28;58854;-76
2023/08/21 08:21:59;;;;;;;0.20;0.20;;;;;;;;;;4975342;28;58562;-76
2023/08/21 08:24:24;;;;;;;1.65;0.47;;;;;;;;;;4976332;28;58628;-76
2023/08/21 08:26:49;;;;;;;0.23;0.23;;;;;;;;;;4973283;28;59239;-76
2023/08/21 08:29:15;;;;;;;0.43;0.10;;;;;;;;;;4975791;28;58156;-75
2023/08/21 08:31:40;;;;;;;0.30;0.10;;;;;;;;;;4976664;28;58684;-76
2023/08/21 08:34:05;;;;;;;0.30;0.23;;;;;;;;;;4972606;28;58843;-75
2023/08/21 08:36:30;;;;;;;0.27;0.27;;;;;;;;;;4969818;28;57998;-76
2023/08/21 08:38:55;;;;;;;0.10;0.10;;;;;;;;;;4975732;28;58547;-76
2023/08/21 08:41:33;;;;;;;0.37;0.37;;;;;;;;;;4976115;28;58525;-76
2023/08/21 08:43:59;;;;;;;0.10;0.10;;;;;;;;;;4974470;28;58344;-76
2023/08/21 08:46:24;;;;;;;0.10;0.10;;;;;;;;;;4971523;28;58356;-76
2023/08/21 08:48:50;;;;;;;0.30;0.30;;;;;;;;;;4973511;28;57965;-75
2023/08/21 08:51:16;;;;;;;0.17;0.17;;;;;;;;;;4955284;28;58937;-75
2023/08/21 08:53:42;;;;;;;0.50;0.50;;;;;;;;;;4974602;28;59184;-75
2023/08/21 08:56:08;;;;;;;0.40;0.20;;;;;;;;;;4976607;28;57875;-76
2023/08/21 08:58:34;;;;;;;0.30;0.20;;;;;;;;;;4975871;28;58578;-75
2023/08/21 09:00:59;;;;;;;0.25;0.25;;;;;;;;;;4972231;28;58433;-75
2023/08/21 09:03:24;;;;;;;1.10;0.40;;;;;;;;;;4974614;28;58062;-75
2023/08/21 09:05:49;;;;;;;0.00;0.00;;;;;;;;;;4977422;28;58862;-76
2023/08/21 09:08:15;;;;;;;0.20;0.10;;;;;;;;;;4959784;28;58413;-75
2023/08/21 09:10:41;;;;;;;0.17;0.17;;;;;;;;;;4960324;28;58745;-74
2023/08/21 09:13:16;;;;;;;0.45;0.20;;;;;;;;;;4974306;28;58533;-74
2023/08/21 09:15:42;;;;;;;0.80;0.20;;;;;;;;;;4973449;28;58351;-74
2023/08/21 09:18:09;;;;;;;0.28;0.15;;;;;;;;;;4972739;28;59697;-74
2023/08/21 09:20:36;;;;;;;0.22;0.10;;;;;;;;;;4974367;28;58443;-74
2023/08/21 09:23:01;;;;;;;0.45;0.22;;;;;;;;;;4972806;28;58401;-74
2023/08/21 09:25:26;;;;;;;0.10;0.10;;;;;;;;;;4971621;28;59300;-74
2023/08/21 09:27:52;;;;;;;0.30;0.30;;;;;;;;;;4976191;28;58378;-74
2023/08/21 09:30:17;;;;;;;0.32;0.32;;;;;;;;;;4971930;28;59262;-74
2023/08/21 09:32:56;;;;;;;0.20;0.10;;;;;;;;;;4976233;28;59213;-74
2023/08/21 09:35:21;;;;;;;0.30;0.17;;;;;;;;;;4971850;28;58362;-74
2023/08/21 09:37:47;;;;;;;0.20;0.10;;;;;;;;;;4975591;28;59015;-74
2023/08/21 09:40:12;;;;;;;0.28;0.28;;;;;;;;;;4973472;28;59060;-74
2023/08/21 09:42:39;;;;;;;0.30;0.30;;;;;;;;;;4975628;28;58530;-74
2023/08/21 09:45:04;;;;;;;0.40;0.20;;;;;;;;;;4971266;28;58688;-74
2023/08/21 09:47:29;;;;;;;0.45;0.30;;;;;;;;;;4976676;28;58545;-74
2023/08/21 09:49:55;;;;;;;0.08;0.08;;;;;;;;;;4978580;28;58420;-74
2023/08/21 09:52:20;;;;;;;0.20;0.17;;;;;;;;;;4975727;28;59965;-73
2023/08/21 09:54:45;;;;;;;0.13;0.13;;;;;;;;;;4978424;28;58370;-74
2023/08/21 09:57:12;;;;;;;0.30;0.27;;;;;;;;;;4978649;28;60281;-74
2023/08/21 09:59:40;;;;;;;0.20;0.20;;;;;;;;;;4976498;28;58276;-74
2023/08/21 10:02:05;;;;;;;0.20;0.20;;;;;;;;;;4974931;28;58446;-73
2023/08/21 10:04:31;;;;;;;0.20;0.20;;;;;;;;;;4980455;28;59882;-74
2023/08/21 10:06:58;;;;;;;0.10;0.10;;;;;;;;;;4974459;28;58860;-74
2023/08/21 10:09:23;;;;;;;0.20;0.20;;;;;;;;;;4978544;28;58347;-73
2023/08/21 10:11:48;;;;;;;0.40;0.15;;;;;;;;;;4977282;28;58878;-74
2023/08/21 10:14:13;;;;;;;0.40;0.30;;;;;;;;;;4977170;28;58283;-74
2023/08/21 10:16:39;;;;;;;0.40;0.37;;;;;;;;;;4976443;28;58506;-74
2023/08/21 10:19:05;;;;;;;0.20;0.20;;;;;;;;;;4976568;28;58621;-74
2023/08/21 10:21:34;;;;;;;0.28;0.20;;;;;;;;;;4977364;28;58348;-76
2023/08/21 10:23:59;;;;;;;0.10;0.10;;;;;;;;;;4976301;28;58697;-75
2023/08/21 10:26:25;;;;;;;0.38;0.38;;;;;;;;;;4976393;28;59016;-75
2023/08/21 10:28:52;;;;;;;0.15;0.15;;;;;;;;;;4978122;28;58363;-75
2023/08/21 10:31:27;;;;;;;0.47;0.47;;;;;;;;;;4977046;28;59290;-75
2023/08/21 10:33:52;;;;;;;0.15;0.10;;;;;;;;;;4973131;28;58024;-75
2023/08/21 10:36:36;;;;;;;0.30;0.30;;;;;;;;;;4972012;28;60508;-75
2023/08/21 10:39:04;;;;;;;0.30;0.20;;;;;;;;;;4974264;28;59567;-75
2023/08/21 10:41:29;;;;;;;0.20;0.10;;;;;;;;;;4977912;28;58313;-76
2023/08/21 10:43:55;;;;;;;0.10;0.10;;;;;;;;;;4975150;28;58585;-75
2023/08/21 10:46:20;;;;;;;0.35;0.35;;;;;;;;;;4974279;28;58451;-75
2023/08/21 10:48:45;;;;;;;0.37;0.20;;;;;;;;;;4976450;28;59200;-75
2023/08/21 10:51:12;;;;;;;0.40;0.20;;;;;;;;;;4977051;28;59709;-75
2023/08/21 10:53:38;;;;;;;0.20;0.20;;;;;;;;;;4978617;28;58862;-75
2023/08/21 10:56:04;;;;;;;1.10;0.38;;;;;;;;;;4979759;28;58694;-75
2023/08/21 10:58:42;;;;;;;1.48;0.22;;;;;;;;;;4976094;28;58472;-75
2023/08/21 11:01:07;;;;;;;0.20;0.10;;;;;;;;;;4976016;28;58552;-76
2023/08/21 11:03:32;;;;;;;0.10;0.10;;;;;;;;;;4975238;28;58512;-75
2023/08/21 11:06:04;;;;;;;0.70;0.30;;;;;;;;;;4975301;28;59811;-75
2023/08/21 11:08:29;;;;;;;0.30;0.30;;;;;;;;;;4973733;28;58394;-75
2023/08/21 11:10:55;;;;;;;0.65;0.50;;;;;;;;;;4976860;28;58827;-75
2023/08/21 11:13:23;;;;;;;0.20;0.20;;;;;;;;;;4975539;28;59054;-75
2023/08/21 11:15:48;;;;;;;;;;;;;;;;;;4976612;28;58108;-75
2023/08/21 11:18:13;;;;;;;0.73;0.73;;;;;;;;;;4975523;28;58541;-75
2023/08/21 11:20:39;;;;;;;0.40;0.32;;;;;;;;;;4977101;28;58418;-75
2023/08/21 11:23:06;;;;;;;0.77;0.25;;;;;;;;;;4973951;28;58370;-75
2023/08/21 11:25:32;;;;;;;0.35;0.17;;;;;;;;;;4975985;28;58393;-75
2023/08/21 11:27:57;;;;;;;0.10;0.10;;;;;;;;;;4973577;28;58450;-75
2023/08/21 11:30:23;;;;;;;0.27;0.27;;;;;;;;;;4978985;28;60719;-75
2023/08/21 11:32:48;;;;;;;0.55;0.20;;;;;;;;;;4974076;28;59520;-75
2023/08/21 11:35:14;;;;;;;0.60;0.20;;;;;;;;;;4977319;28;58400;-75
2023/08/21 11:37:44;;;;;;;0.10;0.10;;;;;;;;;;4973404;28;58546;-75
2023/08/21 11:40:10;;;;;;;0.30;0.30;;;;;;;;;;4975263;28;58410;-74
2023/08/21 11:42:35;;;;;;;0.23;0.13;;;;;;;;;;4976962;28;58862;-75
2023/08/21 11:45:01;;;;;;;0.20;0.10;;;;;;;;;;4974366;28;58595;-75
2023/08/21 11:47:33;;;;;;;0.52;0.30;;;;;;;;;;4974509;28;58339;-75
2023/08/21 11:50:02;;;;;;;0.20;0.20;;;;;;;;;;4973628;28;58715;-75
2023/08/21 11:52:30;;;;;;;0.10;0.10;;;;;;;;;;4975151;28;59543;-75
2023/08/21 11:54:55;;;;;;;0.20;0.20;;;;;;;;;;4976709;28;58457;-75
2023/08/21 11:57:20;;;;;;;0.35;0.30;;;;;;;;;;4975859;28;59242;-75
2023/08/21 11:59:55;;;;;;;0.20;0.17;;;;;;;;;;4979285;28;59324;-75
2023/08/21 12:02:24;;;;;;;0.20;0.20;;;;;;;;;;4972528;28;58678;-75
2023/08/21 12:05:01;;;;;;;0.40;0.20;;;;;;;;;;4960885;28;60360;-75
2023/08/21 12:07:27;;;;;;;;;;;;;;;;;;4974404;28;58390;-75
2023/08/21 12:09:52;;;;;;;0.20;0.20;;;;;;;;;;4976268;28;58855;-75
2023/08/21 12:12:17;;;;;;;0.30;0.30;;;;;;;;;;4957651;28;60318;-75
2023/08/21 12:14:42;;;;;;;0.13;0.13;;;;;;;;;;4961515;28;58335;-75
2023/08/21 12:17:07;;;;;;;0.73;0.30;;;;;;;;;;4976934;28;58399;-75
2023/08/21 12:19:33;;;;;;;0.30;0.20;;;;;;;;;;4975090;28;58534;-75
2023/08/21 12:21:58;;;;;;;0.35;0.35;;;;;;;;;;4975878;28;58597;-76
2023/08/21 12:24:23;;;;;;;0.33;0.33;;;;;;;;;;4956125;28;59118;-76
2023/08/21 12:26:48;;;;;;;0.30;0.30;;;;;;;;;;4975679;28;58442;-77
2023/08/21 12:29:15;;;;;;;0.38;0.38;;;;;;;;;;4974503;28;59519;-77
2023/08/21 12:31:40;;;;;;;0.47;0.43;;;;;;;;;;4960777;28;59310;-76
2023/08/21 12:34:05;;;;;;;0.20;0.20;;;;;;;;;;4970384;28;58410;-77
2023/08/21 12:36:30;;;;;;;0.67;0.20;;;;;;;;;;4974495;28;60857;-77
2023/08/21 12:38:55;;;;;;;0.20;0.20;;;;;;;;;;4973676;28;58593;-76
2023/08/21 12:41:20;;;;;;;0.10;0.10;;;;;;;;;;4975589;28;58460;-74
2023/08/21 12:43:46;;;;;;;0.57;0.40;;;;;;;;;;4974267;28;58525;-76
2023/08/21 12:46:11;;;;;;;0.50;0.50;;;;;;;;;;4975879;28;58404;-77
2023/08/21 12:48:36;;;;;;;0.50;0.27;;;;;;;;;;4973609;28;59159;-77
2023/08/21 12:51:02;;;;;;;0.23;0.23;;;;;;;;;;4975057;28;58901;-77
2023/08/21 12:53:27;;;;;;;0.88;0.60;;;;;;;;;;4975004;28;58485;-77
2023/08/21 12:55:52;;;;;;;0.63;0.30;;;;;;;;;;4975781;28;58333;-77
2023/08/21 12:58:18;;;;;;;0.43;0.20;;;;;;;;;;4975846;28;58306;-77
2023/08/21 13:00:43;;;;;;;0.17;0.17;;;;;;;;;;4975850;28;58540;-77
2023/08/21 13:03:08;;;;;;;0.30;0.27;;;;;;;;;;4973363;28;58572;-74
2023/08/21 13:05:34;;;;;;;0.23;0.23;;;;;;;;;;4975283;28;58382;-76
2023/08/21 13:07:59;;;;;;;0.10;0.10;;;;;;;;;;4975246;28;60420;-77
2023/08/21 13:10:24;;;;;;;0.30;0.10;;;;;;;;;;4974624;28;59861;-77
2023/08/21 13:12:51;;;;;;;0.30;0.30;;;;;;;;;;4975816;28;58556;-80
2023/08/21 13:15:16;;;;;;;0.17;0.17;;;;;;;;;;4972087;28;61086;-77
2023/08/21 13:17:43;;;;;;;1.30;0.30;;;;;;;;;;4974474;28;59089;-77
2023/08/21 13:20:08;;;;;;;0.30;0.30;;;;;;;;;;4978846;28;58325;-78
2023/08/21 13:22:47;;;;;;;1.23;0.75;;;;;;;;;;4978535;28;59090;-76
2023/08/21 13:25:12;;;;;;;1.98;0.45;;;;;;;;;;4975671;28;59488;-76
2023/08/21 13:27:37;;;;;;;1.97;0.50;;;;;;;;;;4978325;28;59482;-80
2023/08/21 13:30:03;;;;;;;5.13;0.90;;;;;;;;;;4977375;28;60540;-80
2023/08/21 13:32:29;;;;;;;0.20;0.20;;;;;;;;;;4978708;28;57673;-78
2023/08/21 13:34:54;;;;;;;0.73;0.50;;;;;;;;;;4976510;28;60234;-79
2023/08/21 13:37:19;;;;;;;0.80;0.80;;;;;;;;;;4975200;28;59782;-81
2023/08/21 13:39:44;;;;;;;0.97;0.40;;;;;;;;;;4978520;28;58149;-83
2023/08/21 13:42:10;;;;;;;2.08;0.52;;;;;;;;;;4979125;28;58778;-83
2023/08/21 13:44:35;;;;;;;6.80;0.50;;;;;;;;;;4976744;28;58526;-83
2023/08/21 13:47:00;;;;;;;0.63;0.38;;;;;;;;;;4978735;28;58442;-83
2023/08/21 13:49:27;;;;;;;6.97;0.50;;;;;;;;;;4976536;28;59279;-83
2023/08/21 13:51:53;;;;;;;;;;;;;;;;;;4980852;28;58480;-84
2023/08/21 13:54:19;;;;;;;0.70;0.38;;;;;;;;;;4976606;28;58903;-83
2023/08/21 13:56:44;;;;;;;8.93;0.60;;;;;;;;;;4978399;28;58684;-84
2023/08/21 13:59:09;;;;;;;1.33;0.67;;;;;;;;;;4979294;28;58386;-84
2023/08/21 14:01:34;;;;;;;2.93;0.53;;;;;;;;;;4975423;28;60836;-84
2023/08/21 14:03:59;;;;;;;2.77;0.60;;;;;;;;;;4973378;28;58296;-84
2023/08/21 14:06:24;;;;;;;0.40;0.40;;;;;;;;;;4975474;28;58645;-84
2023/08/21 14:08:50;;;;;;;0.87;0.30;;;;;;;;;;4974872;28;59303;-84
2023/08/21 14:11:15;;;;;;;2.63;0.40;;;;;;;;;;4976367;28;58382;-84
2023/08/21 14:13:40;;;;;;;0.50;0.40;;;;;;;;;;4975771;28;58752;-85
2023/08/21 14:16:05;;;;;;;1.50;0.20;;;;;;;;;;4960953;28;58552;-84
2023/08/21 14:18:30;;;;;;;0.30;0.23;;;;;;;;;;4970999;28;58314;-84
2023/08/21 14:20:55;;;;;;;1.20;0.33;;;;;;;;;;4970791;28;58381;-83
2023/08/21 14:23:21;;;;;;;0.80;0.40;;;;;;;;;;4952790;28;59022;-83
2023/08/21 14:25:46;;;;;;;0.33;0.30;;;;;;;;;;4974162;28;58392;-84
2023/08/21 14:28:11;;;;;;;0.98;0.32;;;;;;;;;;4976214;28;59528;-84
2023/08/21 14:30:36;;;;;;;0.87;0.23;;;;;;;;;;4977123;28;58501;-84
2023/08/21 14:33:02;;;;;;;0.10;0.10;;;;;;;;;;4959957;28;58527;-84
2023/08/21 14:35:27;;;;;;;0.35;0.35;;;;;;;;;;4971944;28;60414;-83